Time;durP1;ratioP1;P1;durP2;ratioP2;P2;SDS_P1;SDS_P2;PMS_P1;PMS_P2;Temp;Humidity;BMP_temperature;BMP_pressure;BME280_temperature;BME280_humidity;BME280_pressure;Samples;Min_cycle;Max_cycle;Signal;HPM_P1;HPM_P2
2023/08/10 00:01:46;;;;;;;1.80;1.10;;;;;;;19.44;100.00;100686.97;5091429;28;20024;-78
2023/08/10 00:04:33;;;;;;;2.78;1.25;;;;;;;19.43;100.00;100679.69;5071522;28;20032;-78
2023/08/10 00:07:19;;;;;;;1.88;1.40;;;;;;;19.43;100.00;100677.69;5058835;28;20044;-78
2023/08/10 00:10:08;;;;;;;1.27;1.17;;;;;;;19.43;100.00;100680.50;5036359;28;20040;-78
2023/08/10 00:12:54;;;;;;;2.05;1.17;;;;;;;19.43;100.00;100690.97;5066770;28;20039;-78
2023/08/10 00:15:39;;;;;;;1.35;1.10;;;;;;;19.41;100.00;100682.03;5059880;28;20023;-77
2023/08/10 00:18:25;;;;;;;2.28;1.17;;;;;;;19.41;100.00;100682.03;5032741;28;20058;-78
2023/08/10 00:21:11;;;;;;;2.28;1.13;;;;;;;19.44;100.00;100675.69;5047831;28;20102;-78
2023/08/10 00:23:57;;;;;;;5.47;1.25;;;;;;;19.40;100.00;100667.13;5075086;28;20032;-77
2023/08/10 00:26:43;;;;;;;2.50;1.00;;;;;;;19.42;100.00;100666.81;5043308;28;20401;-78
2023/08/10 00:29:29;;;;;;;2.65;1.30;;;;;;;19.41;100.00;100677.22;5062212;28;20032;-78
2023/08/10 00:32:15;;;;;;;2.55;1.30;;;;;;;19.40;100.00;100675.59;5049396;28;20511;-78
2023/08/10 00:35:02;;;;;;;4.03;1.23;;;;;;;19.39;100.00;100671.13;5075091;28;20059;-78
2023/08/10 00:37:49;;;;;;;5.13;1.35;;;;;;;19.41;100.00;100665.13;5047309;28;20381;-78
2023/08/10 00:40:34;;;;;;;2.05;1.15;;;;;;;19.40;100.00;100669.94;5065282;28;20055;-78
2023/08/10 00:43:21;;;;;;;2.10;1.25;;;;;;;19.39;100.00;100668.31;5053823;28;20045;-77
2023/08/10 00:46:07;;;;;;;1.73;1.15;;;;;;;19.35;100.00;100669.34;5073815;28;20531;-78
2023/08/10 00:48:53;;;;;;;3.05;1.20;;;;;;;19.35;100.00;100673.00;5047736;28;20032;-78
2023/08/10 00:51:38;;;;;;;2.25;1.05;;;;;;;19.31;100.00;100666.44;5047646;28;20031;-77
2023/08/10 00:54:24;;;;;;;2.22;1.20;;;;;;;19.30;100.00;100664.75;5059821;28;20085;-77
2023/08/10 00:57:10;;;;;;;5.65;1.50;;;;;;;19.30;100.00;100664.75;5044758;28;20032;-78
2023/08/10 00:59:56;;;;;;;3.80;1.00;;;;;;;19.28;100.00;100669.09;5062797;28;20124;-78
2023/08/10 01:02:42;;;;;;;2.13;1.35;;;;;;;19.25;100.00;100667.84;5041983;28;20036;-78
2023/08/10 01:05:28;;;;;;;2.15;1.35;;;;;;;19.21;100.00;100664.06;5061764;28;20095;-78
2023/08/10 01:08:31;;;;;;;1.90;1.30;;;;;;;19.20;100.00;100659.59;5054555;28;20091;-78
2023/08/10 01:11:26;;;;;;;3.13;1.20;;;;;;;19.18;100.00;100650.69;5048680;28;20078;-78
2023/08/10 01:14:37;;;;;;;3.20;1.33;;;;;;;19.15;100.00;100651.38;5042528;28;20041;-77
2023/08/10 01:17:26;;;;;;;1.40;1.05;;;;;;;19.12;100.00;100646.44;5092756;28;20506;-78
2023/08/10 01:20:12;;;;;;;2.08;1.25;;;;;;;19.11;100.00;100644.78;5080974;28;20028;-78
2023/08/10 01:23:13;;;;;;;2.08;1.50;;;;;;;19.07;100.00;100649.47;5078447;28;20031;-77
2023/08/10 01:25:59;;;;;;;3.58;1.30;;;;;;;19.04;100.00;100644.56;5083173;28;20035;-77
2023/08/10 01:28:45;;;;;;;2.97;1.20;;;;;;;19.04;100.00;100644.56;5094189;28;20028;-78
2023/08/10 01:31:31;;;;;;;2.22;1.40;;;;;;;19.01;100.00;100653.69;5095929;28;20035;-78
2023/08/10 01:34:16;;;;;;;2.88;1.13;;;;;;;18.98;100.00;100641.97;5092931;28;20050;-77
2023/08/10 01:37:02;;;;;;;2.25;1.33;;;;;;;18.98;100.00;100652.41;5111385;28;20040;-77
2023/08/10 01:39:48;;;;;;;2.50;1.17;;;;;;;18.93;100.00;100655.44;5087517;28;20027;-77
2023/08/10 01:42:34;;;;;;;2.10;1.10;;;;;;;18.93;100.00;100675.94;5066982;28;20039;-78
2023/08/10 01:45:20;;;;;;;3.28;1.23;;;;;;;18.92;100.00;100665.88;5091481;28;20400;-78
2023/08/10 01:48:12;;;;;;;1.33;1.10;;;;;;;18.91;100.00;100664.19;5099965;28;20028;-77
2023/08/10 01:50:58;;;;;;;1.35;1.10;;;;;;;18.88;100.00;100676.16;5082677;28;20028;-77
2023/08/10 01:53:43;;;;;;;2.35;1.45;;;;;;;18.87;100.00;100680.16;5092836;28;20063;-78
2023/08/10 01:56:29;;;;;;;3.22;1.20;;;;;;;18.86;100.00;100688.91;5096962;28;20480;-77
2023/08/10 01:59:15;;;;;;;3.35;1.13;;;;;;;18.80;100.00;100688.31;5086579;28;20028;-77
2023/08/10 02:02:01;;;;;;;4.70;1.40;;;;;;;18.79;100.00;100683.03;5068028;28;20027;-77
2023/08/10 02:04:46;;;;;;;2.55;1.00;;;;;;;18.78;100.00;100685.03;5094560;28;20067;-78
2023/08/10 02:07:32;;;;;;;1.52;1.20;;;;;;;18.76;100.00;100687.38;5112506;28;20165;-77
2023/08/10 02:10:18;;;;;;;1.45;1.02;;;;;;;18.74;100.00;100679.25;5082040;28;20028;-77
2023/08/10 02:13:04;;;;;;;1.50;0.90;;;;;;;18.74;100.00;100692.50;5088309;28;20028;-77
2023/08/10 02:15:50;;;;;;;1.48;1.13;;;;;;;18.71;100.00;100704.44;5091324;28;20054;-78
2023/08/10 02:18:37;;;;;;;2.33;1.00;;;;;;;18.73;100.00;100724.59;5070591;28;20099;-77
2023/08/10 02:21:23;;;;;;;1.30;0.80;;;;;;;18.72;100.00;100731.38;5104866;28;20085;-77
2023/08/10 02:24:09;;;;;;;3.50;1.00;;;;;;;18.69;100.00;100732.06;5113489;28;20036;-78
2023/08/10 02:26:55;;;;;;;2.53;1.05;;;;;;;18.65;100.00;100728.31;5096828;28;20035;-77
2023/08/10 02:29:41;;;;;;;1.25;0.90;;;;;;;18.65;100.00;100726.31;5094330;28;20039;-77
2023/08/10 02:32:27;;;;;;;1.65;1.00;;;;;;;18.65;100.00;100712.25;5095093;28;20042;-78
2023/08/10 02:35:13;;;;;;;2.88;1.10;;;;;;;18.66;100.00;100721.50;5099082;28;20031;-78
2023/08/10 02:37:59;;;;;;;1.92;1.00;;;;;;;18.62;100.00;100712.94;5085452;28;20150;-77
2023/08/10 02:40:45;;;;;;;2.60;0.88;;;;;;;18.64;100.00;100715.44;5105039;28;20030;-78
2023/08/10 02:43:30;;;;;;;2.15;0.93;;;;;;;18.60;100.00;100708.81;5093523;28;20393;-78
2023/08/10 02:46:16;;;;;;;2.05;1.05;;;;;;;18.61;100.00;100710.47;5099018;28;20103;-77
2023/08/10 02:49:02;;;;;;;1.52;0.98;;;;;;;18.58;100.00;100708.34;5092294;28;20054;-77
2023/08/10 02:51:48;;;;;;;2.38;0.95;;;;;;;18.58;100.00;100700.72;5091328;28;20034;-77
2023/08/10 02:54:33;;;;;;;1.58;1.10;;;;;;;18.50;100.00;100681.94;5097804;28;20511;-78
2023/08/10 02:57:19;;;;;;;1.58;1.23;;;;;;;18.48;100.00;100656.16;5094817;28;20038;-77
2023/08/10 03:00:06;;;;;;;3.20;1.40;;;;;;;18.37;100.00;100604.31;5077100;28;20089;-77
2023/08/10 03:02:52;;;;;;;3.75;1.65;;;;;;;18.22;100.00;100543.91;5111606;28;20035;-77
2023/08/10 03:05:38;;;;;;;2.95;2.30;;;;;;;18.15;100.00;100516.38;5093834;28;20062;-77
2023/08/10 03:08:24;;;;;;;2.97;1.77;;;;;;;18.15;100.00;100535.22;5063611;28;20043;-77
2023/08/10 03:11:10;;;;;;;3.15;1.50;;;;;;;18.18;100.00;100526.09;5108466;28;20105;-77
2023/08/10 03:13:55;;;;;;;3.92;1.98;;;;;;;18.19;100.00;100519.31;5087766;28;20032;-77
2023/08/10 03:16:41;;;;;;;3.28;1.55;;;;;;;18.20;100.00;100565.94;5105550;28;20048;-77
2023/08/10 03:19:27;;;;;;;3.45;1.40;;;;;;;18.20;100.00;100561.13;5088068;28;20482;-77
2023/08/10 03:22:13;;;;;;;2.08;1.40;;;;;;;18.23;100.00;100546.38;5084321;28;20086;-77
2023/08/10 03:24:58;;;;;;;3.90;1.48;;;;;;;18.23;100.00;100542.75;5080358;28;20032;-77
2023/08/10 03:27:44;;;;;;;2.20;1.23;;;;;;;18.22;100.00;100553.19;5102168;28;20032;-77
2023/08/10 03:30:30;;;;;;;2.30;1.23;;;;;;;18.24;100.00;100519.09;5111572;28;20118;-77
2023/08/10 03:33:16;;;;;;;4.15;1.50;;;;;;;18.19;100.00;100477.16;5109140;28;20063;-77
2023/08/10 03:36:02;;;;;;;3.72;1.77;;;;;;;18.12;100.00;100457.22;5103246;28;20035;-77
2023/08/10 03:38:48;;;;;;;2.67;1.48;;;;;;;18.12;100.00;100474.91;5098947;28;20027;-77
2023/08/10 03:41:34;;;;;;;3.20;1.38;;;;;;;18.14;100.00;100488.63;5096476;28;20043;-78
2023/08/10 03:44:19;;;;;;;2.35;1.30;;;;;;;18.20;100.00;100518.97;5079648;28;20028;-77
2023/08/10 03:47:05;;;;;;;2.28;1.10;;;;;;;18.24;100.00;100538.78;5076436;28;20487;-78
2023/08/10 03:49:51;;;;;;;3.72;1.52;;;;;;;18.25;100.00;100534.81;5082426;28;20163;-78
2023/08/10 03:52:37;;;;;;;2.92;1.23;;;;;;;18.26;100.00;100537.25;5115012;28;20042;-78
2023/08/10 03:55:23;;;;;;;2.15;1.20;;;;;;;18.29;100.00;100541.38;5103648;28;20404;-78
2023/08/10 03:58:08;;;;;;;1.77;1.20;;;;;;;18.33;100.00;100576.09;5076036;28;20037;-78
2023/08/10 04:00:54;;;;;;;2.67;1.00;;;;;;;18.34;100.00;100608.63;5097772;28;20074;-78
2023/08/10 04:03:41;;;;;;;1.90;1.13;;;;;;;18.37;100.00;100615.56;5079511;28;20144;-78
2023/08/10 04:06:27;;;;;;;1.05;0.88;;;;;;;18.37;100.00;100636.06;5079251;28;20032;-78
2023/08/10 04:09:13;;;;;;;4.90;1.20;;;;;;;18.36;100.00;100642.03;5096323;28;20039;-78
2023/08/10 04:11:58;;;;;;;3.33;1.00;;;;;;;18.36;100.00;100656.94;5080237;28;20063;-78
2023/08/10 04:14:45;;;;;;;1.58;0.95;;;;;;;18.36;100.00;100659.75;5104818;28;20031;-78
2023/08/10 04:17:30;;;;;;;2.42;1.00;;;;;;;18.32;100.00;100647.50;5095990;28;20500;-78
2023/08/10 04:20:16;;;;;;;2.67;1.15;;;;;;;18.34;100.00;100636.75;5099243;28;20492;-78
2023/08/10 04:23:02;;;;;;;2.50;0.90;;;;;;;18.33;100.00;100662.38;5088115;28;20110;-78
2023/08/10 04:25:49;;;;;;;2.72;0.98;;;;;;;18.34;100.00;100661.25;5092997;28;20036;-78
2023/08/10 04:28:35;;;;;;;2.95;1.00;;;;;;;18.34;100.00;100644.38;5097521;28;20031;-78
2023/08/10 04:31:21;;;;;;;1.70;0.90;;;;;;;18.35;100.00;100649.63;5104243;28;20046;-78
2023/08/10 04:34:07;;;;;;;1.75;1.10;;;;;;;18.31;100.00;100617.78;5075491;28;20551;-78
2023/08/10 04:36:53;;;;;;;2.25;1.10;;;;;;;18.15;100.00;100608.31;5109079;28;20027;-78
2023/08/10 04:39:39;;;;;;;2.45;0.88;;;;;;;18.14;100.00;100603.88;5078722;28;20114;-78
2023/08/10 04:42:25;;;;;;;1.00;0.77;;;;;;;18.08;100.00;100580.75;5100408;28;20031;-78
2023/08/10 04:45:11;;;;;;;1.15;0.75;;;;;;;18.09;100.00;100588.84;5089775;28;20044;-78
2023/08/10 04:47:57;;;;;;;1.45;1.17;;;;;;;18.11;100.00;100579.22;5091322;28;20043;-78
2023/08/10 04:50:43;;;;;;;2.13;1.20;;;;;;;18.06;100.00;100567.03;5077751;28;20039;-78
2023/08/10 04:53:29;;;;;;;2.67;1.30;;;;;;;18.05;100.00;100561.75;5077815;28;20399;-78
2023/08/10 04:56:14;;;;;;;2.63;1.00;;;;;;;18.01;100.00;100566.44;5102059;28;20028;-78
2023/08/10 04:59:00;;;;;;;1.27;0.82;;;;;;;18.07;100.00;100579.09;5080910;28;20032;-78
2023/08/10 05:01:46;;;;;;;1.63;0.90;;;;;;;18.11;100.00;100607.34;5074961;28;20102;-78
2023/08/10 05:04:32;;;;;;;1.00;0.90;;;;;;;18.11;100.00;100608.19;5074900;28;20040;-78
2023/08/10 05:07:18;;;;;;;1.25;1.00;;;;;;;18.06;100.00;100583.91;5090940;28;20048;-78
2023/08/10 05:10:05;;;;;;;1.33;0.90;;;;;;;18.07;100.00;100596.78;5076909;28;20043;-78
2023/08/10 05:12:51;;;;;;;3.92;1.00;;;;;;;18.13;100.00;100645.19;5086432;28;20127;-77
2023/08/10 05:15:36;;;;;;;1.45;1.00;;;;;;;18.16;100.00;100658.53;5085886;28;20092;-77
2023/08/10 05:18:22;;;;;;;3.03;1.00;;;;;;;18.15;100.00;100597.88;5089858;28;20051;-77
2023/08/10 05:21:08;;;;;;;1.17;0.93;;;;;;;18.17;100.00;100570.25;5073712;28;20028;-77
2023/08/10 05:23:54;;;;;;;2.45;0.90;;;;;;;18.19;100.00;100561.47;5094547;28;20027;-78
2023/08/10 05:26:39;;;;;;;2.28;1.02;;;;;;;18.22;100.00;100530.69;5074359;28;20035;-77
2023/08/10 05:29:25;;;;;;;3.00;1.30;;;;;;;18.22;100.00;100541.94;5088952;28;20048;-77
2023/08/10 05:32:11;;;;;;;1.27;0.85;;;;;;;18.24;100.00;100522.72;5107404;28;20522;-77
2023/08/10 05:34:57;;;;;;;2.22;1.10;;;;;;;18.19;100.00;100485.56;5083047;28;20043;-78
2023/08/10 05:37:42;;;;;;;3.20;1.30;;;;;;;18.13;100.00;100447.63;5102927;28;20032;-77
2023/08/10 05:40:29;;;;;;;3.38;1.20;;;;;;;18.13;100.00;100447.63;5074526;28;20059;-78
2023/08/10 05:43:14;;;;;;;3.95;1.42;;;;;;;18.08;100.00;100449.50;5075669;28;20469;-77
2023/08/10 05:49:23;;;;;;;1.58;1.10;;;;;;;18.14;100.00;100471.78;5096857;28;20046;-78
2023/08/10 05:52:09;;;;;;;1.70;1.17;;;;;;;18.20;100.00;100488.06;5102498;28;20048;-78
2023/08/10 05:54:55;;;;;;;2.00;0.82;;;;;;;18.24;100.00;100508.66;5104670;28;20058;-78
2023/08/10 05:57:41;;;;;;;1.73;1.17;;;;;;;18.27;100.00;100510.78;5090638;28;20063;-78
2023/08/10 06:00:27;;;;;;;1.77;0.90;;;;;;;18.30;100.00;100503.66;5077636;28;20067;-78
2023/08/10 06:03:14;;;;;;;1.65;1.00;;;;;;;18.34;100.00;100520.66;5088305;28;20036;-77
2023/08/10 06:06:00;;;;;;;1.48;0.95;;;;;;;18.34;100.00;100577.72;5074695;28;20065;-78
2023/08/10 06:08:48;;;;;;;2.28;1.05;;;;;;;18.35;100.00;100615.91;5091315;28;20464;-77
2023/08/10 06:11:34;;;;;;;1.90;1.23;;;;;;;18.33;100.00;100597.72;5101175;28;20063;-78
2023/08/10 06:14:20;;;;;;;2.28;0.98;;;;;;;18.38;100.00;100632.06;5074264;28;20484;-78
2023/08/10 06:17:05;;;;;;;2.17;0.80;;;;;;;18.42;100.00;100616.19;5097399;28;20048;-77
2023/08/10 06:19:52;;;;;;;3.83;1.20;;;;;;;18.41;100.00;100579.97;5106660;28;20032;-77
2023/08/10 06:22:38;;;;;;;1.30;0.90;;;;;;;18.45;100.00;100623.91;5098155;28;20404;-77
2023/08/10 06:25:24;;;;;;;1.58;1.08;;;;;;;18.51;100.00;100605.66;5098861;28;20028;-78
2023/08/10 06:28:10;;;;;;;2.20;0.90;;;;;;;18.57;100.00;100620.34;5069313;28;20057;-78
2023/08/10 06:30:56;;;;;;;3.13;0.80;;;;;;;18.61;100.00;100617.66;5093298;28;20403;-78
2023/08/10 06:33:42;;;;;;;1.27;0.98;;;;;;;18.66;100.00;100623.88;5078145;28;20032;-78
2023/08/10 06:36:28;;;;;;;1.90;1.00;;;;;;;18.72;100.00;100621.66;5101369;28;20088;-78
2023/08/10 06:39:13;;;;;;;1.17;0.93;;;;;;;18.80;100.00;100640.47;5092065;28;20046;-78
2023/08/10 06:41:59;;;;;;;2.10;1.13;;;;;;;18.89;100.00;100627.16;5077393;28;20039;-78
2023/08/10 06:44:45;;;;;;;1.45;0.88;;;;;;;18.95;100.00;100639.84;5112705;28;20066;-77
2023/08/10 06:47:31;;;;;;;2.35;1.10;;;;;;;19.08;100.00;100635.03;5091487;28;20050;-77
2023/08/10 06:50:16;;;;;;;1.60;0.90;;;;;;;19.18;100.00;100628.97;5106746;28;20028;-77
2023/08/10 06:53:02;;;;;;;1.33;1.10;;;;;;;19.33;100.00;100647.16;5091652;28;20078;-77
2023/08/10 06:55:50;;;;;;;1.88;0.73;;;;;;;19.48;100.00;100648.50;5100682;28;20627;-78
2023/08/10 06:58:36;;;;;;;3.42;1.00;;;;;;;19.64;100.00;100652.25;5102954;28;20027;-77
2023/08/10 07:01:22;;;;;;;0.90;0.70;;;;;;;19.88;100.00;100655.44;5109352;28;20031;-77
2023/08/10 07:04:08;;;;;;;2.05;0.98;;;;;;;20.07;100.00;100661.28;5085266;28;20035;-77
2023/08/10 07:06:54;;;;;;;1.60;0.95;;;;;;;20.34;100.00;100662.53;5079567;28;20032;-77
2023/08/10 07:09:40;;;;;;;1.13;0.98;;;;;;;20.61;100.00;100665.75;5075661;28;20482;-78
2023/08/10 07:12:26;;;;;;;2.22;0.90;;;;;;;20.89;100.00;100654.47;5110454;28;20035;-78
2023/08/10 07:15:12;;;;;;;1.23;0.70;;;;;;;21.14;100.00;100647.47;5080421;28;20031;-77
2023/08/10 07:17:58;;;;;;;1.60;0.82;;;;;;;21.36;100.00;100651.69;5093216;28;20036;-77
2023/08/10 07:20:44;;;;;;;1.77;1.15;;;;;;;21.56;100.00;100644.19;5097138;28;20057;-78
2023/08/10 07:23:30;;;;;;;1.90;1.00;;;;;;;21.74;100.00;100635.31;5097079;28;20046;-77
2023/08/10 07:26:16;;;;;;;2.38;1.27;;;;;;;21.97;100.00;100636.25;5085168;28;20132;-78
2023/08/10 07:29:03;;;;;;;3.20;1.23;;;;;;;22.17;100.00;100639.13;5093555;28;20118;-78
2023/08/10 07:31:48;;;;;;;6.28;1.27;;;;;;;22.38;100.00;100636.00;5112802;28;20039;-78
2023/08/10 07:34:34;;;;;;;3.47;0.93;;;;;;;22.57;100.00;100638.81;5094985;27;20285;-78
2023/08/10 07:37:20;;;;;;;1.92;1.00;;;;;;;22.70;100.00;100633.81;5107624;27;20119;-78
2023/08/10 07:40:11;;;;;;;2.58;1.15;;;;;;;22.82;100.00;100633.66;5089165;28;20503;-77
2023/08/10 07:42:56;;;;;;;1.70;0.93;;;;;;;22.90;100.00;100638.28;5098174;27;20035;-78
2023/08/10 07:45:42;;;;;;;1.45;1.08;;;;;;;22.96;100.00;100645.31;5068951;28;20412;-78
2023/08/10 07:48:29;;;;;;;1.73;0.90;;;;;;;23.01;100.00;100655.47;5085118;28;20035;-78
2023/08/10 07:51:14;;;;;;;4.50;1.10;;;;;;;23.07;100.00;100650.38;5090962;27;20134;-78
2023/08/10 07:54:00;;;;;;;2.67;1.05;;;;;;;23.10;100.00;100658.91;5068594;28;20095;-77
2023/08/10 07:56:46;;;;;;;1.42;0.98;;;;;;;23.10;100.00;100641.09;5118771;28;20495;-78
2023/08/10 07:59:32;;;;;;;1.38;1.00;;;;;;;23.13;100.00;100652.50;5095226;28;20039;-78
2023/08/10 08:02:18;;;;;;;1.35;0.95;;;;;;;23.17;100.00;100650.53;5098983;28;20024;-78
2023/08/10 08:05:06;;;;;;;2.78;1.20;;;;;;;23.20;100.00;100657.47;5096976;28;20032;-78
2023/08/10 08:07:51;;;;;;;1.98;1.10;;;;;;;23.24;100.00;100663.22;5096594;28;20040;-77
2023/08/10 08:10:37;;;;;;;5.38;1.10;;;;;;;23.33;100.00;100670.25;5095707;28;20032;-78
2023/08/10 08:13:23;;;;;;;1.13;1.00;;;;;;;23.44;100.00;100658.31;5082792;28;20032;-78
2023/08/10 08:16:10;;;;;;;2.58;1.13;;;;;;;23.55;100.00;100642.31;5084851;28;20036;-78
2023/08/10 08:18:55;;;;;;;1.73;0.90;;;;;;;23.75;100.00;100645.91;5082495;28;20389;-78
2023/08/10 08:21:42;;;;;;;1.92;1.10;;;;;;;23.94;100.00;100644.97;5091569;28;20081;-78
2023/08/10 08:24:27;;;;;;;0.95;0.70;;;;;;;24.13;100.00;100646.88;5088563;28;20191;-77
2023/08/10 08:27:13;;;;;;;2.47;0.88;;;;;;;24.25;100.00;100644.63;5102401;28;20046;-78
2023/08/10 08:29:59;;;;;;;1.60;1.10;;;;;;;24.51;100.00;100648.63;5102314;28;20032;-77
2023/08/10 08:32:45;;;;;;;3.25;1.17;;;;;;;24.73;100.00;100647.69;5088941;28;20074;-78
2023/08/10 08:35:30;;;;;;;4.15;1.13;;;;;;;24.92;100.00;100645.88;5085603;28;20024;-77
2023/08/10 08:38:17;;;;;;;1.33;0.95;;;;;;;25.15;100.00;100646.56;5088952;28;20027;-75
2023/08/10 08:41:05;;;;;;;2.10;0.90;;;;;;;25.38;100.00;100654.91;5102032;28;20028;-76
2023/08/10 08:43:50;;;;;;;1.85;0.95;;;;;;;25.55;100.00;100659.13;5124591;27;20023;-77
2023/08/10 08:46:42;;;;;;;1.35;1.00;;;;;;;25.78;100.00;100661.75;5082444;28;20032;-77
2023/08/10 08:49:28;;;;;;;2.03;1.20;;;;;;;25.97;100.00;100663.56;5091551;28;20120;-76
2023/08/10 08:52:14;;;;;;;1.23;0.90;;;;;;;26.16;100.00;100661.63;5068088;28;20086;-77
2023/08/10 08:55:00;;;;;;;2.60;1.45;;;;;;;26.34;100.00;100656.88;5079804;28;20031;-77
2023/08/10 08:57:47;;;;;;;1.83;1.35;;;;;;;26.52;100.00;100651.28;5086267;28;20126;-77
2023/08/10 09:00:33;;;;;;;3.03;1.23;;;;;;;26.71;100.00;100659.50;5102657;28;20406;-77
2023/08/10 09:03:20;;;;;;;3.88;1.38;;;;;;;26.87;100.00;100662.00;5101027;28;20118;-76
2023/08/10 09:06:06;;;;;;;2.45;1.60;;;;;;;26.96;100.00;100664.47;5088964;28;20032;-77
2023/08/10 09:08:52;;;;;;;2.75;1.45;;;;;;;27.17;100.00;100664.56;5108702;28;20100;-76
2023/08/10 09:11:37;;;;;;;4.40;1.60;;;;;;;27.34;100.00;100676.41;5075426;28;20035;-76
2023/08/10 09:14:23;;;;;;;3.30;1.23;;;;;;;27.49;100.00;100677.22;5074576;28;20123;-77
2023/08/10 09:17:09;;;;;;;2.70;1.08;;;;;;;27.60;100.00;100666.66;5085679;28;20055;-77
2023/08/10 09:19:55;;;;;;;3.30;1.17;;;;;;;27.75;100.00;100673.16;5075560;28;20044;-77
2023/08/10 09:22:41;;;;;;;2.72;1.10;;;;;;;27.87;100.00;100686.25;5076495;28;20082;-76
2023/08/10 09:25:27;;;;;;;3.47;0.82;;;;;;;28.02;100.00;100665.00;5081375;28;20039;-77
2023/08/10 09:28:12;;;;;;;3.67;1.25;;;;;;;28.08;100.00;100657.66;5065661;28;20091;-77
2023/08/10 09:30:58;;;;;;;2.13;1.10;;;;;;;28.22;100.00;100666.22;5117619;28;20058;-77
2023/08/10 09:33:44;;;;;;;1.70;1.20;;;;;;;28.32;100.00;100660.88;5088989;28;20024;-76
2023/08/10 09:36:30;;;;;;;1.70;0.90;;;;;;;28.44;100.00;100654.75;5092778;28;20039;-76
2023/08/10 09:39:16;;;;;;;1.42;1.10;;;;;;;28.51;100.00;100660.44;5088904;28;20495;-77
2023/08/10 09:42:02;;;;;;;1.52;0.88;;;;;;;28.62;100.00;100658.34;5091662;28;20111;-77
2023/08/10 09:44:49;;;;;;;1.95;0.90;;;;;;;28.69;100.00;100652.59;5066032;28;20038;-77
2023/08/10 09:47:37;;;;;;;2.80;1.00;;;;;;;28.84;100.00;100652.56;5094229;28;20058;-77
2023/08/10 09:50:23;;;;;;;1.88;1.02;;;;;;;29.01;100.00;100651.63;5059431;28;20353;-77
2023/08/10 09:53:09;;;;;;;2.78;1.10;;;;;;;29.16;99.40;100656.03;5059091;28;20443;-77
2023/08/10 09:55:56;;;;;;;0.93;0.70;;;;;;;29.27;nan;100652.31;5094218;28;20544;-77
2023/08/10 09:58:42;;;;;;;2.55;0.98;;;;;;;29.30;93.98;100652.28;5067269;28;20038;-77
2023/08/10 10:01:27;;;;;;;1.00;0.77;;;;;;;29.42;96.34;100664.47;5076656;28;20026;-77
2023/08/10 10:04:13;;;;;;;3.05;0.70;;;;;;;29.54;96.13;100669.69;5072370;28;20119;-77
2023/08/10 10:06:59;;;;;;;1.90;0.85;;;;;;;29.66;98.04;100666.34;5039470;28;20095;-77
2023/08/10 10:09:45;;;;;;;1.05;0.80;;;;;;;29.75;94.42;100666.66;5062921;28;20070;-77
2023/08/10 10:12:34;;;;;;;2.58;0.80;;;;;;;29.91;91.50;100668.19;5057246;28;20073;-77
2023/08/10 10:15:20;;;;;;;2.58;1.00;;;;;;;30.09;91.64;100665.13;5057489;28;20097;-77
2023/08/10 10:18:06;;;;;;;0.95;0.70;;;;;;;30.25;92.40;100665.41;5064029;28;20055;-77
2023/08/10 10:20:52;;;;;;;1.75;0.88;;;;;;;30.48;89.57;100654.09;5091129;28;20040;-77
2023/08/10 10:23:41;;;;;;;1.98;1.00;;;;;;;30.66;89.33;100667.38;5073867;28;20058;-77
2023/08/10 10:26:26;;;;;;;1.48;0.73;;;;;;;30.83;87.48;100659.81;5062243;28;20064;-77
2023/08/10 10:29:14;;;;;;;2.05;0.60;;;;;;;30.92;88.81;100660.09;5069718;28;20403;-77
2023/08/10 10:32:09;;;;;;;1.98;0.80;;;;;;;31.04;89.67;100650.94;5059226;28;20028;-77
2023/08/10 10:34:56;;;;;;;1.42;0.68;;;;;;;31.15;87.95;100642.19;5108394;28;20024;-77
2023/08/10 10:37:41;;;;;;;1.55;0.80;;;;;;;31.27;91.19;100655.91;5081240;28;20035;-76
2023/08/10 10:40:27;;;;;;;1.52;0.70;;;;;;;31.30;82.60;100649.31;5074321;28;20031;-77
2023/08/10 10:43:15;;;;;;;0.90;0.80;;;;;;;31.45;81.06;100632.69;5046072;28;20044;-77
2023/08/10 10:46:01;;;;;;;2.55;0.90;;;;;;;31.58;83.54;100632.91;5042297;28;20055;-77
2023/08/10 10:48:47;;;;;;;0.95;0.73;;;;;;;31.75;85.60;100633.84;5051543;28;20121;-77
2023/08/10 10:51:49;;;;;;;1.98;0.80;;;;;;;31.80;82.08;100631.28;5063575;28;20046;-77
2023/08/10 10:54:35;;;;;;;3.53;0.90;;;;;;;31.95;83.81;100636.78;5092075;28;20036;-78
2023/08/10 10:57:21;;;;;;;2.72;0.70;;;;;;;32.10;80.14;100635.28;5069979;28;20032;-78
2023/08/10 11:00:07;;;;;;;1.75;0.60;;;;;;;32.20;78.91;100624.81;5061937;28;20034;-78
2023/08/10 11:02:53;;;;;;;1.08;0.80;;;;;;;32.34;79.27;100610.16;5069377;28;20111;-79
2023/08/10 11:05:39;;;;;;;1.30;0.80;;;;;;;32.44;74.80;100614.88;5061998;28;20091;-78
2023/08/10 11:08:25;;;;;;;0.75;0.60;;;;;;;32.57;80.28;100629.44;5066379;28;20127;-78
2023/08/10 11:11:11;;;;;;;2.45;0.77;;;;;;;32.62;75.34;100623.16;5088798;28;20039;-78
2023/08/10 11:13:57;;;;;;;1.13;0.77;;;;;;;32.71;75.15;100622.56;5046688;28;20548;-79
2023/08/10 11:16:43;;;;;;;2.05;0.70;;;;;;;32.86;77.49;100620.19;5078061;28;20114;-75
2023/08/10 11:19:33;;;;;;;1.70;0.80;;;;;;;32.99;76.24;100615.38;5090780;28;20038;-75
2023/08/10 11:22:19;;;;;;;1.17;0.80;;;;;;;33.06;74.46;100623.84;5068045;28;20028;-75
2023/08/10 11:25:18;;;;;;;1.58;0.70;;;;;;;33.18;77.38;100621.53;5074854;28;20114;-75
2023/08/10 11:28:04;;;;;;;2.80;0.90;;;;;;;33.29;80.05;100613.44;5079579;28;20032;-75
2023/08/10 11:30:49;;;;;;;1.25;0.60;;;;;;;33.41;78.91;100618.50;5074322;28;20059;-75
2023/08/10 11:33:36;;;;;;;2.03;0.68;;;;;;;33.54;75.22;100619.44;5057547;28;20033;-75
2023/08/10 11:36:23;;;;;;;1.50;0.70;;;;;;;33.68;75.06;100617.41;5082308;28;20063;-75
2023/08/10 11:39:10;;;;;;;2.15;0.90;;;;;;;33.72;71.66;100613.19;5062613;28;20036;-75
2023/08/10 11:41:56;;;;;;;3.17;0.90;;;;;;;33.84;74.82;100608.75;5071119;28;20086;-75
2023/08/10 11:44:48;;;;;;;3.08;0.90;;;;;;;33.90;71.26;100604.06;5066962;28;20032;-75
2023/08/10 11:47:39;;;;;;;2.80;0.90;;;;;;;33.96;70.63;100610.09;5068045;28;20035;-75
2023/08/10 11:50:26;;;;;;;3.33;0.80;;;;;;;34.06;73.15;100609.00;5089207;28;20032;-76
2023/08/10 11:53:14;;;;;;;1.50;0.75;;;;;;;34.06;67.65;100614.78;5089230;28;20130;-75
2023/08/10 11:55:59;;;;;;;2.45;0.82;;;;;;;34.17;72.16;100608.72;5071442;28;20032;-75
2023/08/10 11:58:45;;;;;;;1.65;0.80;;;;;;;34.29;74.71;100601.38;5071248;28;20028;-75
2023/08/10 12:01:31;;;;;;;1.70;0.93;;;;;;;34.34;75.04;100607.38;5083640;28;20045;-75
2023/08/10 12:04:17;;;;;;;1.45;0.80;;;;;;;34.45;75.92;100607.88;5061648;28;20034;-75
2023/08/10 12:07:02;;;;;;;2.47;0.80;;;;;;;34.55;74.36;100610.91;5035256;28;20037;-75
2023/08/10 12:09:50;;;;;;;2.35;0.80;;;;;;;34.69;75.50;100610.53;5100498;28;20085;-75
2023/08/10 12:12:36;;;;;;;3.70;1.00;;;;;;;34.74;69.39;100607.03;5075725;28;20028;-75
2023/08/10 12:15:23;;;;;;;1.65;0.80;;;;;;;34.82;64.24;100611.31;5056464;28;20032;-75
2023/08/10 12:18:09;;;;;;;2.47;0.90;;;;;;;34.97;65.68;100608.00;5044730;28;20130;-76
2023/08/10 12:20:55;;;;;;;1.77;0.73;;;;;;;35.06;64.23;100608.97;5089324;28;20036;-76
2023/08/10 12:23:41;;;;;;;0.73;0.65;;;;;;;35.20;66.60;100619.22;5085489;28;20036;-76
2023/08/10 12:26:26;;;;;;;2.30;1.00;;;;;;;35.34;65.20;100604.31;5067150;28;20047;-75
2023/08/10 12:29:12;;;;;;;0.80;0.70;;;;;;;35.43;65.41;100599.94;5079858;28;20092;-76
2023/08/10 12:31:58;;;;;;;2.13;0.90;;;;;;;35.51;63.18;100601.31;5083238;28;20040;-75
2023/08/10 12:34:44;;;;;;;2.92;1.08;;;;;;;35.63;61.53;100603.38;5091813;28;20043;-75
2023/08/10 12:37:30;;;;;;;1.58;0.85;;;;;;;35.65;59.21;100600.84;5059988;28;20028;-76
2023/08/10 12:40:16;;;;;;;2.25;0.90;;;;;;;35.75;63.56;100602.56;5069931;28;20059;-76
2023/08/10 12:43:02;;;;;;;1.38;0.93;;;;;;;35.86;64.71;100599.28;5065038;28;20584;-75
2023/08/10 12:45:48;;;;;;;1.35;0.77;;;;;;;35.88;62.84;100616.13;5062172;28;20042;-76
2023/08/10 12:48:34;;;;;;;1.45;0.88;;;;;;;35.91;62.82;100606.53;5071517;28;20072;-76
2023/08/10 12:51:20;;;;;;;1.02;0.80;;;;;;;35.96;62.95;100609.63;5069162;28;20125;-76